createdAt,value
2022-11-24T00:00:14.830Z,6.85
2022-11-24T00:04:16.751Z,7.68
2022-11-24T00:08:18.710Z,8.13
2022-11-24T00:12:20.622Z,7.45
2022-11-24T00:16:34.561Z,7.25
2022-11-24T00:20:36.665Z,7.60
2022-11-24T00:24:38.791Z,7.05
2022-11-24T00:28:41.861Z,7.35
2022-11-24T00:32:43.804Z,7.38
2022-11-24T00:36:45.728Z,7.28
2022-11-24T00:40:47.668Z,6.97
2022-11-24T00:44:51.787Z,7.28
2022-11-24T00:48:54.069Z,8.70
2022-11-24T00:52:56.035Z,8.20
2022-11-24T00:56:57.987Z,8.00
2022-11-24T01:01:05.558Z,7.70
2022-11-24T01:05:08.039Z,8.35
2022-11-24T01:09:11.415Z,8.55
2022-11-24T01:13:13.450Z,8.30
2022-11-24T01:17:15.442Z,8.82
2022-11-24T01:21:18.662Z,9.07
2022-11-24T01:25:20.782Z,8.73
2022-11-24T01:29:22.823Z,9.10
2022-11-24T01:33:24.868Z,9.13
2022-11-24T01:37:26.861Z,9.68
2022-11-24T01:41:28.845Z,8.82
2022-11-24T01:45:40.747Z,7.70
2022-11-24T01:49:49.861Z,7.15
2022-11-24T01:54:08.070Z,6.07
2022-11-24T01:58:17.419Z,6.53
2022-11-24T02:02:20.555Z,6.78
2022-11-24T02:06:29.997Z,6.60
2022-11-24T02:10:32.031Z,7.35
2022-11-24T02:14:36.575Z,6.70
2022-11-24T02:22:49.998Z,6.32
2022-11-24T02:26:54.830Z,6.38
2022-11-24T02:30:58.263Z,6.50
2022-11-24T02:35:05.473Z,6.80
2022-11-24T02:39:14.402Z,6.30
2022-11-24T02:43:21.800Z,6.20
2022-11-24T02:47:23.728Z,6.80
2022-11-24T02:51:25.785Z,6.80
2022-11-24T02:55:27.714Z,7.05
2022-11-24T02:59:29.780Z,7.07
2022-11-24T03:03:31.948Z,6.85
2022-11-24T03:07:34.152Z,7.10
2022-11-24T03:11:37.365Z,7.63
2022-11-24T03:15:41.286Z,7.07
2022-11-24T03:19:43.268Z,7.20
2022-11-24T03:23:45.560Z,7.30
2022-11-24T03:27:47.832Z,7.43
2022-11-24T03:31:49.899Z,6.78
2022-11-24T03:35:51.945Z,6.65
2022-11-24T03:39:53.980Z,7.35
2022-11-24T03:43:56.343Z,6.47
2022-11-24T03:47:58.352Z,6.03
2022-11-24T03:52:05.228Z,6.30
2022-11-24T03:56:09.892Z,5.50
2022-11-24T04:00:12.158Z,6.15
2022-11-24T04:04:14.604Z,5.68
2022-11-24T04:08:17.212Z,6.00
2022-11-24T04:12:37.668Z,6.05
2022-11-24T04:16:39.739Z,6.15
2022-11-24T04:20:42.379Z,5.72
2022-11-24T04:24:44.561Z,5.38
2022-11-24T04:28:46.601Z,6.00
2022-11-24T04:32:48.933Z,5.38
2022-11-24T04:36:51.016Z,5.38
2022-11-24T04:40:53.082Z,6.43
2022-11-24T04:44:55.674Z,5.85
2022-11-24T04:48:57.887Z,6.00
2022-11-24T04:53:00.412Z,5.70
2022-11-24T04:57:02.432Z,6.95
2022-11-24T05:01:07.318Z,6.85
2022-11-24T05:05:09.611Z,7.13
2022-11-24T05:09:16.127Z,6.88
2022-11-24T05:13:18.421Z,6.72
2022-11-24T05:17:20.773Z,6.38
2022-11-24T05:21:23.496Z,6.93
2022-11-24T05:25:25.488Z,6.43
2022-11-24T05:29:27.568Z,6.43
2022-11-24T05:33:30.156Z,6.30
2022-11-24T05:37:32.201Z,6.25
2022-11-24T05:41:34.171Z,6.45
2022-11-24T05:45:36.164Z,6.65
2022-11-24T05:49:38.386Z,7.45
2022-11-24T05:53:40.336Z,6.78
2022-11-24T05:57:43.350Z,6.28
2022-11-24T06:01:45.969Z,6.93
2022-11-24T06:05:48.330Z,7.20
2022-11-24T06:09:50.507Z,6.82
2022-11-24T06:13:52.522Z,7.88
2022-11-24T06:17:56.318Z,7.25
2022-11-24T06:21:58.822Z,7.13
2022-11-24T06:26:01.436Z,7.85
2022-11-24T06:30:04.102Z,7.28
2022-11-24T06:34:07.820Z,8.30
2022-11-24T06:38:09.835Z,8.47
2022-11-24T06:42:11.839Z,9.45
2022-11-24T06:46:13.875Z,23.55
2022-11-24T06:50:16.361Z,17.17
2022-11-24T06:54:21.197Z,15.30
2022-11-24T06:58:23.409Z,13.63
2022-11-24T07:02:25.457Z,13.57
2022-11-24T07:06:28.547Z,13.85
2022-11-24T07:10:30.577Z,11.27
2022-11-24T07:14:32.894Z,8.73
2022-11-24T07:18:35.300Z,11.32
2022-11-24T07:22:37.646Z,12.98
2022-11-24T07:26:40.234Z,11.85
2022-11-24T07:30:42.197Z,13.07
2022-11-24T07:34:44.247Z,13.23
2022-11-24T07:38:46.423Z,11.55
2022-11-24T07:42:48.461Z,12.55
2022-11-24T07:46:51.395Z,11.68
2022-11-24T07:50:56.042Z,11.88
2022-11-24T07:54:59.063Z,12.23
2022-11-24T07:59:01.423Z,10.75
2022-11-24T08:03:03.422Z,10.13
2022-11-24T08:07:05.452Z,9.00
2022-11-24T08:11:09.582Z,8.68
2022-11-24T08:15:11.801Z,7.45
2022-11-24T08:19:13.898Z,7.75
2022-11-24T08:23:16.440Z,6.57
2022-11-24T08:27:19.485Z,5.47
2022-11-24T08:31:21.560Z,4.95
2022-11-24T08:35:23.620Z,4.72
2022-11-24T08:39:25.764Z,5.35
2022-11-24T08:43:27.852Z,4.80
2022-11-24T08:47:29.851Z,5.25
2022-11-24T08:51:31.969Z,2.60
2022-11-24T08:55:34.048Z,2.42
2022-11-24T08:59:36.094Z,2.88
2022-11-24T09:03:42.207Z,2.60
2022-11-24T09:07:47.020Z,1.98
2022-11-24T09:11:49.110Z,1.88
2022-11-24T09:15:51.109Z,1.63
2022-11-24T09:19:53.125Z,1.42
2022-11-24T09:23:56.125Z,1.17
2022-11-24T09:28:00.023Z,1.08
2022-11-24T09:32:06.489Z,0.90
2022-11-24T09:36:09.411Z,0.93
2022-11-24T09:40:14.343Z,2.17
2022-11-24T09:44:46.170Z,1.20
2022-11-24T09:48:52.563Z,1.25
2022-11-24T09:53:03.782Z,1.50
2022-11-24T09:57:07.024Z,1.35
2022-11-24T10:01:17.163Z,1.80
2022-11-24T10:05:19.601Z,1.60
2022-11-24T10:09:32.520Z,1.05
2022-11-24T10:13:37.815Z,1.30
2022-11-24T10:17:58.570Z,1.75
2022-11-24T10:22:33.717Z,1.48
2022-11-24T10:26:37.986Z,1.67
2022-11-24T10:30:40.397Z,1.73
2022-11-24T10:34:46.181Z,1.77
2022-11-24T10:39:23.689Z,1.80
2022-11-24T10:43:30.842Z,1.85
2022-11-24T10:47:32.911Z,2.13
2022-11-24T10:51:49.992Z,2.05
2022-11-24T10:55:57.894Z,2.00
2022-11-24T11:00:01.103Z,1.52
2022-11-24T11:04:17.134Z,1.90
2022-11-24T11:08:30.377Z,1.45
2022-11-24T11:12:47.632Z,1.80
2022-11-24T11:16:55.935Z,1.60
2022-11-24T11:21:03.771Z,1.90
2022-11-24T11:25:11.940Z,1.67
2022-11-24T11:34:16.015Z,2.20
2022-11-24T11:38:17.543Z,1.80
2022-11-24T11:43:01.208Z,1.95
2022-11-24T11:47:08.842Z,2.25
2022-11-24T11:51:29.693Z,2.00
2022-11-24T11:55:50.092Z,1.80
2022-11-24T12:00:05.271Z,2.17
2022-11-24T12:04:21.667Z,1.92
2022-11-24T12:09:11.497Z,1.55
2022-11-24T12:13:14.137Z,1.48
2022-11-24T12:17:31.745Z,1.83
2022-11-24T12:22:09.361Z,1.50
2022-11-24T12:26:34.803Z,1.33
2022-11-24T12:30:47.511Z,1.42
2022-11-24T12:35:02.958Z,1.27
2022-11-24T12:39:25.072Z,1.33
2022-11-24T12:43:40.401Z,0.95
2022-11-24T12:47:42.447Z,1.20
2022-11-24T12:51:50.882Z,0.90
2022-11-24T12:55:55.027Z,1.38
2022-11-24T13:00:07.967Z,1.40
2022-11-24T13:04:29.547Z,1.52
2022-11-24T13:08:31.908Z,1.48
2022-11-24T13:12:33.964Z,1.25
2022-11-24T13:17:13.477Z,1.50
2022-11-24T13:21:51.044Z,1.45
2022-11-24T13:26:16.053Z,1.50
2022-11-24T13:30:54.701Z,1.65
2022-11-24T13:35:12.362Z,1.30
2022-11-24T13:39:21.264Z,0.98
2022-11-24T13:43:23.347Z,0.93
2022-11-24T13:47:36.008Z,0.70
2022-11-24T13:51:38.173Z,0.80
2022-11-24T13:55:41.412Z,0.77
2022-11-24T13:59:43.870Z,1.30
2022-11-24T14:04:29.300Z,1.00
2022-11-24T14:08:33.814Z,0.73
2022-11-24T14:12:35.835Z,0.77
2022-11-24T14:16:37.917Z,0.70
2022-11-24T14:20:40.036Z,1.10
2022-11-24T14:24:45.503Z,0.98
2022-11-24T14:28:48.413Z,0.90
2022-11-24T14:33:04.094Z,1.02
2022-11-24T14:37:06.334Z,1.20
2022-11-24T14:41:23.107Z,1.05
2022-11-24T14:45:25.231Z,1.00
2022-11-24T14:49:27.488Z,0.93
2022-11-24T14:53:29.886Z,2.22
2022-11-24T14:57:37.765Z,1.50
2022-11-24T15:01:39.977Z,1.52
2022-11-24T15:05:55.944Z,1.35
2022-11-24T15:10:00.888Z,1.50
2022-11-24T15:14:03.190Z,0.95
2022-11-24T15:18:06.724Z,1.13
2022-11-24T15:22:33.299Z,1.90
2022-11-24T15:26:41.349Z,2.17
2022-11-24T15:30:44.217Z,2.30
2022-11-24T15:34:46.608Z,2.13
2022-11-24T15:38:48.959Z,2.78
2022-11-24T15:42:55.999Z,2.75
2022-11-24T15:46:58.134Z,2.17
2022-11-24T15:51:05.063Z,3.13
2022-11-24T15:55:12.879Z,3.35
2022-11-24T15:59:20.296Z,5.57
2022-11-24T16:07:45.655Z,3.92
2022-11-24T16:11:48.347Z,3.95
2022-11-24T16:15:50.395Z,3.58
2022-11-24T16:20:00.331Z,4.68
2022-11-24T16:24:02.882Z,6.95
2022-11-24T16:28:05.412Z,5.25
2022-11-24T16:32:07.520Z,5.30
2022-11-24T16:36:09.711Z,4.10
2022-11-24T16:40:16.542Z,4.70
2022-11-24T16:44:19.618Z,6.30
2022-11-24T16:48:21.606Z,6.05
2022-11-24T16:52:23.740Z,6.53
2022-11-24T16:56:27.291Z,5.60
2022-11-24T17:00:29.369Z,6.30
2022-11-24T17:04:31.645Z,6.45
2022-11-24T17:08:35.338Z,7.05
2022-11-24T17:12:37.964Z,7.30
2022-11-24T17:16:40.110Z,9.02
2022-11-24T17:20:42.171Z,10.93
2022-11-24T17:24:44.278Z,11.30
2022-11-24T17:28:46.929Z,15.98
2022-11-24T17:32:52.426Z,17.35
2022-11-24T17:36:58.657Z,12.23
2022-11-24T17:41:00.979Z,17.20
2022-11-24T17:45:03.181Z,14.65
2022-11-24T17:49:06.804Z,14.90
2022-11-24T17:53:08.888Z,17.35
2022-11-24T17:57:10.937Z,19.83
2022-11-24T18:01:13.833Z,17.50
2022-11-24T18:05:16.060Z,12.98
2022-11-24T18:09:18.143Z,13.10
2022-11-24T18:13:41.156Z,13.93
2022-11-24T18:17:42.176Z,11.38
2022-11-24T18:21:45.185Z,8.43
2022-11-24T18:25:58.642Z,7.32
2022-11-24T18:30:00.682Z,11.00
2022-11-24T18:34:04.353Z,15.00
2022-11-24T18:38:06.877Z,33.07
2022-11-24T18:42:10.285Z,24.15
2022-11-24T18:46:15.007Z,22.45
2022-11-24T18:50:17.613Z,31.50
2022-11-24T18:54:19.616Z,17.05
2022-11-24T18:58:21.794Z,23.38
2022-11-24T19:02:23.873Z,23.55
2022-11-24T19:06:32.035Z,20.05
2022-11-24T19:10:38.787Z,19.42
2022-11-24T19:14:40.802Z,22.42
2022-11-24T19:18:42.957Z,19.15
2022-11-24T19:22:45.119Z,17.63
2022-11-24T19:26:47.327Z,17.85
2022-11-24T19:30:51.476Z,16.83
2022-11-24T19:34:57.501Z,18.90
2022-11-24T19:39:00.186Z,18.70
2022-11-24T19:43:09.087Z,20.17
2022-11-24T19:47:32.996Z,15.60
2022-11-24T19:51:50.442Z,16.90
2022-11-24T19:55:55.561Z,12.68
2022-11-24T19:59:59.889Z,14.30
2022-11-24T20:04:12.485Z,26.35
2022-11-24T20:08:14.527Z,32.15
2022-11-24T20:12:16.530Z,30.48
2022-11-24T20:16:26.668Z,28.27
2022-11-24T20:20:28.958Z,25.40
2022-11-24T20:24:31.141Z,79.72
2022-11-24T20:28:33.581Z,23.15
2022-11-24T20:32:35.600Z,26.90
2022-11-24T20:36:40.533Z,9.95
2022-11-24T20:40:42.658Z,8.73
2022-11-24T20:44:44.931Z,8.73
2022-11-24T20:48:47.676Z,12.48
2022-11-24T20:52:49.886Z,20.55
2022-11-24T20:56:52.133Z,22.60
2022-11-24T21:00:54.361Z,20.35
2022-11-24T21:04:56.662Z,20.08
2022-11-24T21:09:03.520Z,26.00
2022-11-24T21:13:06.137Z,24.60
2022-11-24T21:17:08.183Z,23.90
2022-11-24T21:21:11.061Z,24.05
2022-11-24T21:25:13.321Z,21.63
2022-11-24T21:29:19.401Z,31.23
2022-11-24T21:33:21.611Z,27.67
2022-11-24T21:37:23.678Z,25.73
2022-11-24T21:41:28.178Z,30.55
2022-11-24T21:45:30.411Z,30.27
2022-11-24T21:49:32.560Z,15.60
2022-11-24T21:53:36.510Z,12.85
2022-11-24T21:57:40.187Z,16.77
2022-11-24T22:01:52.914Z,14.68
2022-11-24T22:05:56.832Z,18.05
2022-11-24T22:09:59.893Z,18.92
2022-11-24T22:14:03.560Z,18.65
2022-11-24T22:18:06.297Z,15.13
2022-11-24T22:22:08.398Z,15.30
2022-11-24T22:26:16.118Z,12.77
2022-11-24T22:30:19.180Z,13.07
2022-11-24T22:34:21.704Z,13.77
2022-11-24T22:38:24.556Z,14.90
2022-11-24T22:42:26.640Z,14.77
2022-11-24T22:46:30.352Z,15.07
2022-11-24T22:50:32.566Z,15.40
2022-11-24T22:54:34.992Z,15.48
2022-11-24T22:58:38.571Z,13.27
2022-11-24T23:02:40.751Z,13.00
2022-11-24T23:06:43.199Z,14.73
2022-11-24T23:10:45.229Z,15.30
2022-11-24T23:14:47.465Z,16.23
2022-11-24T23:18:53.794Z,17.10
2022-11-24T23:22:57.037Z,15.77
2022-11-24T23:26:59.351Z,30.70
2022-11-24T23:31:07.434Z,21.83
2022-11-24T23:35:13.602Z,14.95
2022-11-24T23:39:16.231Z,18.42
2022-11-24T23:43:18.238Z,19.52
2022-11-24T23:47:20.541Z,13.65
2022-11-24T23:51:28.669Z,13.65
2022-11-24T23:55:30.656Z,12.95
2022-11-24T23:59:32.680Z,13.27
